createdAt,value
2019-05-02T00:00:29.980Z,44.51
2019-05-02T00:02:59.853Z,45.38
2019-05-02T00:05:27.448Z,45.99
2019-05-02T00:08:04.877Z,46.09
2019-05-02T00:10:28.835Z,46.01
2019-05-02T00:12:55.745Z,46.36
2019-05-02T00:15:22.565Z,46.46
2019-05-02T00:17:52.080Z,46.47
2019-05-02T00:20:25.752Z,46.79
2019-05-02T00:22:52.324Z,46.69
2019-05-02T00:25:24.738Z,46.86
2019-05-02T00:27:53.414Z,46.08
2019-05-02T00:30:25.024Z,45.72
2019-05-02T00:32:58.347Z,45.45
2019-05-02T00:35:27.082Z,45.53
2019-05-02T00:37:57.341Z,44.94
2019-05-02T00:40:25.736Z,45.09
2019-05-02T00:42:53.270Z,45.15
2019-05-02T00:45:24.076Z,44.67
2019-05-02T00:47:49.766Z,44.06
2019-05-02T00:50:16.429Z,44.20
2019-05-02T00:52:43.135Z,44.33
2019-05-02T00:55:10.291Z,44.53
2019-05-02T00:57:36.939Z,44.87
2019-05-02T01:00:03.775Z,44.92
2019-05-02T01:02:30.628Z,45.16
2019-05-02T01:04:59.282Z,45.30
2019-05-02T01:07:26.920Z,45.16
2019-05-02T01:09:54.465Z,45.00
2019-05-02T01:12:26.564Z,45.15
2019-05-02T01:14:49.775Z,45.32
2019-05-02T01:17:16.432Z,45.14
2019-05-02T01:19:47.362Z,46.45
2019-05-02T01:22:16.002Z,46.29
2019-05-02T01:24:41.685Z,46.41
2019-05-02T01:27:09.172Z,47.23
2019-05-02T01:29:35.743Z,47.20
2019-05-02T01:32:02.633Z,47.54
2019-05-02T01:34:29.522Z,47.32
2019-05-02T01:36:56.399Z,47.53
2019-05-02T01:39:23.295Z,47.15
2019-05-02T01:41:50.916Z,46.72
2019-05-02T01:44:17.691Z,47.26
2019-05-02T01:46:44.341Z,48.40
2019-05-02T01:49:10.938Z,48.31
2019-05-02T01:51:42.049Z,48.58
2019-05-02T01:54:09.987Z,48.94
2019-05-02T01:56:37.112Z,49.46
2019-05-02T01:59:03.724Z,49.95
2019-05-02T02:01:30.342Z,50.12
2019-05-02T02:03:57.317Z,50.12
2019-05-02T02:06:23.987Z,50.00
2019-05-02T02:08:50.864Z,49.99
2019-05-02T02:11:17.469Z,50.36
2019-05-02T02:13:44.092Z,50.61
2019-05-02T02:16:11.106Z,50.53
2019-05-02T02:18:37.865Z,50.53
2019-05-02T02:21:04.592Z,50.59
2019-05-02T02:23:31.356Z,50.72
2019-05-02T02:25:58.904Z,50.77
2019-05-02T02:28:25.517Z,50.63
2019-05-02T02:30:57.687Z,50.53
2019-05-02T02:33:21.649Z,50.32
2019-05-02T02:35:50.329Z,50.49
2019-05-02T02:38:16.658Z,51.12
2019-05-02T02:40:43.249Z,50.74
2019-05-02T02:43:32.248Z,51.70
2019-05-02T02:45:39.141Z,52.16
2019-05-02T02:48:05.742Z,51.96
2019-05-02T02:50:42.853Z,51.71
2019-05-02T02:53:05.434Z,51.93
2019-05-02T02:55:32.342Z,52.35
2019-05-02T02:58:04.677Z,52.57
2019-05-02T03:00:28.326Z,52.66
2019-05-02T03:02:57.367Z,52.57
2019-05-02T03:05:25.863Z,52.66
2019-05-02T03:07:52.578Z,52.81
2019-05-02T03:10:22.147Z,52.65
2019-05-02T03:12:48.477Z,53.35
2019-05-02T03:15:21.204Z,52.65
2019-05-02T03:17:47.298Z,52.35
2019-05-02T03:20:16.919Z,52.42
2019-05-02T03:22:43.701Z,52.70
2019-05-02T03:25:18.002Z,52.69
2019-05-02T03:27:46.819Z,52.89
2019-05-02T03:30:29.570Z,53.42
2019-05-02T03:33:03.012Z,53.69
2019-05-02T03:35:19.701Z,53.56
2019-05-02T03:37:51.385Z,53.50
2019-05-02T03:40:21.953Z,53.20
2019-05-02T03:42:49.503Z,53.26
2019-05-02T03:45:17.792Z,53.27
2019-05-02T03:47:48.698Z,53.15
2019-05-02T03:50:31.683Z,53.21
2019-05-02T03:52:48.552Z,53.37
2019-05-02T03:55:23.619Z,53.37
2019-05-02T03:57:45.478Z,53.59
2019-05-02T04:00:20.576Z,54.33
2019-05-02T04:02:46.836Z,54.96
2019-05-02T04:05:19.619Z,54.89
2019-05-02T04:07:46.193Z,55.07
2019-05-02T04:10:19.305Z,54.87
2019-05-02T04:12:45.248Z,54.61
2019-05-02T04:15:12.130Z,53.95
2019-05-02T04:17:40.912Z,52.93
2019-05-02T04:20:10.204Z,52.59
2019-05-02T04:22:42.609Z,50.61
2019-05-02T04:25:06.412Z,49.79
2019-05-02T04:27:34.202Z,49.07
2019-05-02T04:30:09.802Z,49.51
2019-05-02T04:32:32.035Z,49.73
2019-05-02T04:35:00.040Z,50.31
2019-05-02T04:37:26.655Z,50.18
2019-05-02T04:40:00.709Z,50.76
2019-05-02T04:42:24.144Z,50.44
2019-05-02T04:45:14.129Z,50.91
2019-05-02T04:47:22.346Z,49.92
2019-05-02T04:49:52.039Z,50.51
2019-05-02T04:52:38.465Z,50.18
2019-05-02T04:55:17.101Z,50.30
2019-05-02T04:57:41.084Z,50.57
2019-05-02T05:00:08.575Z,50.07
2019-05-02T05:02:36.469Z,49.57
2019-05-02T05:05:02.938Z,48.78
2019-05-02T05:07:40.052Z,48.38
2019-05-02T05:10:02.999Z,47.93
2019-05-02T05:12:32.472Z,47.07
2019-05-02T05:15:00.482Z,47.12
2019-05-02T05:17:32.479Z,46.62
2019-05-02T05:20:00.169Z,45.94
2019-05-02T05:22:29.261Z,44.17
2019-05-02T05:24:58.101Z,44.97
2019-05-02T05:27:24.487Z,44.46
2019-05-02T05:29:53.677Z,42.91
2019-05-02T05:32:19.709Z,43.10
2019-05-02T05:34:47.781Z,43.32
2019-05-02T05:37:17.302Z,43.34
2019-05-02T05:39:50.904Z,42.68
2019-05-02T05:42:14.719Z,42.98
2019-05-02T05:44:41.320Z,41.95
2019-05-02T05:47:12.248Z,40.63
2019-05-02T05:49:40.407Z,41.04
2019-05-02T05:52:08.081Z,39.32
2019-05-02T05:54:40.478Z,40.72
2019-05-02T05:57:03.476Z,40.04
2019-05-02T05:59:32.061Z,40.10
2019-05-02T06:02:05.307Z,39.76
2019-05-02T06:04:33.129Z,39.91
2019-05-02T06:06:59.547Z,39.46
2019-05-02T06:09:31.084Z,39.35
2019-05-02T06:11:58.828Z,39.99
2019-05-02T06:14:27.861Z,39.50
2019-05-02T06:16:54.937Z,38.43
2019-05-02T06:19:23.899Z,38.24
2019-05-02T06:21:54.856Z,38.76
2019-05-02T06:24:22.468Z,37.46
2019-05-02T06:26:51.720Z,37.57
2019-05-02T06:29:20.597Z,36.93
2019-05-02T06:31:50.654Z,38.48
2019-05-02T06:34:18.233Z,36.49
2019-05-02T06:36:48.504Z,37.38
2019-05-02T06:39:15.368Z,37.27
2019-05-02T06:41:45.947Z,37.27
2019-05-02T06:44:18.651Z,37.55
2019-05-02T06:46:46.924Z,37.56
2019-05-02T06:49:17.062Z,37.33
2019-05-02T06:51:45.702Z,36.83
2019-05-02T06:54:18.061Z,37.82
2019-05-02T06:56:47.862Z,37.20
2019-05-02T06:59:18.473Z,37.68
2019-05-02T07:01:43.115Z,37.46
2019-05-02T07:04:10.244Z,36.18
2019-05-02T07:06:55.982Z,36.41
2019-05-02T07:09:09.067Z,37.32
2019-05-02T07:11:40.945Z,36.69
2019-05-02T07:14:13.417Z,36.08
2019-05-02T07:16:38.829Z,36.63
2019-05-02T07:19:04.439Z,36.23
2019-05-02T07:21:33.123Z,35.82
2019-05-02T07:24:03.421Z,36.15
2019-05-02T07:26:34.901Z,36.25
2019-05-02T07:29:07.701Z,36.22
2019-05-02T07:31:36.633Z,34.97
2019-05-02T07:34:08.044Z,35.32
2019-05-02T07:36:38.360Z,34.69
2019-05-02T07:39:07.593Z,34.75
2019-05-02T07:41:37.250Z,35.93
2019-05-02T07:44:06.075Z,34.50
2019-05-02T07:46:51.605Z,34.76
2019-05-02T07:49:12.891Z,35.47
2019-05-02T07:51:44.631Z,34.93
2019-05-02T07:54:13.625Z,34.71
2019-05-02T07:56:48.620Z,35.04
2019-05-02T07:59:18.705Z,34.57
2019-05-02T08:01:44.914Z,34.62
2019-05-02T08:04:18.067Z,33.50
2019-05-02T08:06:46.445Z,33.21
2019-05-02T08:09:13.450Z,31.84
2019-05-02T08:11:45.979Z,32.02
2019-05-02T08:14:18.915Z,33.38
2019-05-02T08:16:45.848Z,32.95
2019-05-02T08:19:17.110Z,31.35
2019-05-02T08:21:43.925Z,28.82
2019-05-02T08:24:12.047Z,28.95
2019-05-02T08:26:39.457Z,30.00
2019-05-02T08:29:06.533Z,29.40
2019-05-02T08:31:36.370Z,29.76
2019-05-02T08:34:14.398Z,30.72
2019-05-02T08:36:37.090Z,27.20
2019-05-02T08:39:05.974Z,27.50
2019-05-02T08:41:36.650Z,28.31
2019-05-02T08:44:03.984Z,28.27
2019-05-02T08:49:23.906Z,27.88
2019-05-02T08:51:55.972Z,28.48
2019-05-02T08:54:23.255Z,28.80
2019-05-02T08:56:58.721Z,27.92
2019-05-02T08:59:26.077Z,27.62
2019-05-02T09:01:53.871Z,27.76
2019-05-02T09:07:12.527Z,26.04
2019-05-02T09:09:40.498Z,26.00
2019-05-02T09:12:15.086Z,25.66
2019-05-02T09:14:45.299Z,25.40
2019-05-02T09:17:16.727Z,25.75
2019-05-02T09:19:58.683Z,25.19
2019-05-02T09:22:16.775Z,26.68
2019-05-02T09:24:45.355Z,26.35
2019-05-02T09:27:12.442Z,26.12
2019-05-02T09:29:49.078Z,26.12
2019-05-02T09:32:22.839Z,26.09
2019-05-02T09:34:56.581Z,26.30
2019-05-02T09:37:27.393Z,27.29
2019-05-02T09:39:54.325Z,27.53
2019-05-02T09:42:24.782Z,26.98
2019-05-02T09:44:56.854Z,27.88
2019-05-02T09:47:27.461Z,27.80
2019-05-02T09:49:53.199Z,26.95
2019-05-02T09:52:22.991Z,26.44
2019-05-02T09:54:51.854Z,26.88
2019-05-02T09:57:22.616Z,26.09
2019-05-02T09:59:55.797Z,27.16
2019-05-02T10:02:22.814Z,25.79
2019-05-02T10:04:52.946Z,27.85
2019-05-02T10:07:27.001Z,27.00
2019-05-02T10:10:02.522Z,26.31
2019-05-02T10:12:25.459Z,27.26
2019-05-02T10:14:52.739Z,26.03
2019-05-02T10:17:23.248Z,27.90
2019-05-02T10:19:57.057Z,26.94
2019-05-02T10:22:26.685Z,25.87
2019-05-02T10:24:55.779Z,26.50
2019-05-02T10:27:29.136Z,27.46
2019-05-02T10:30:08.097Z,26.26
2019-05-02T10:32:32.386Z,25.84
2019-05-02T10:35:02.106Z,27.30
2019-05-02T10:37:37.677Z,26.49
2019-05-02T10:39:59.975Z,24.57
2019-05-02T10:42:26.895Z,25.56
2019-05-02T10:44:56.050Z,26.37
2019-05-02T10:47:22.736Z,27.78
2019-05-02T10:49:49.610Z,25.08
2019-05-02T10:52:21.571Z,25.36
2019-05-02T10:54:49.661Z,23.52
2019-05-02T10:57:21.867Z,23.92
2019-05-02T10:59:48.624Z,24.13
2019-05-02T11:02:15.482Z,22.86
2019-05-02T11:04:43.792Z,24.07
2019-05-02T11:07:21.915Z,23.00
2019-05-02T11:09:42.272Z,23.12
2019-05-02T11:12:09.439Z,23.12
2019-05-02T11:14:42.082Z,23.01
2019-05-02T11:17:15.945Z,23.93
2019-05-02T11:19:42.001Z,22.90
2019-05-02T11:22:12.195Z,22.53
2019-05-02T11:24:38.960Z,23.26
2019-05-02T11:27:08.188Z,22.32
2019-05-02T11:29:36.642Z,23.01
2019-05-02T11:32:03.548Z,22.80
2019-05-02T11:34:37.696Z,23.12
2019-05-02T11:37:05.065Z,23.59
2019-05-02T11:39:42.753Z,23.58
2019-05-02T11:42:04.638Z,22.40
2019-05-02T11:44:33.753Z,22.85
2019-05-02T11:47:03.792Z,24.21
2019-05-02T11:49:31.956Z,25.02
2019-05-02T11:52:03.779Z,24.01
2019-05-02T11:54:34.050Z,25.24
2019-05-02T11:57:03.918Z,24.31
2019-05-02T11:59:33.019Z,21.78
2019-05-02T12:02:02.705Z,21.63
2019-05-02T12:04:32.464Z,22.15
2019-05-02T12:07:01.474Z,22.11
2019-05-02T12:09:31.829Z,22.49
2019-05-02T12:12:05.506Z,21.73
2019-05-02T12:14:36.401Z,23.61
2019-05-02T12:17:03.311Z,22.84
2019-05-02T12:19:33.885Z,24.90
2019-05-02T12:22:02.612Z,23.25
2019-05-02T12:24:31.895Z,22.47
2019-05-02T12:26:59.940Z,24.78
2019-05-02T12:29:30.104Z,23.58
2019-05-02T12:31:56.993Z,23.10
2019-05-02T12:34:26.184Z,23.61
2019-05-02T12:36:55.481Z,24.44
2019-05-02T12:39:22.336Z,21.91
2019-05-02T12:41:49.388Z,22.43
2019-05-02T12:44:16.813Z,21.20
2019-05-02T12:46:43.654Z,24.55
2019-05-02T12:49:22.644Z,22.21
2019-05-02T12:51:39.183Z,24.24
2019-05-02T12:54:06.064Z,21.38
2019-05-02T12:56:32.994Z,21.78
2019-05-02T12:59:02.161Z,22.22
2019-05-02T13:01:28.714Z,22.19
2019-05-02T13:03:55.574Z,22.07
2019-05-02T13:06:22.753Z,23.57
2019-05-02T13:08:49.348Z,20.75
2019-05-02T13:11:16.201Z,22.21
2019-05-02T13:13:43.680Z,23.00
2019-05-02T13:16:12.195Z,21.89
2019-05-02T13:18:39.271Z,22.82
2019-05-02T13:21:08.110Z,22.38
2019-05-02T13:23:37.178Z,22.37
2019-05-02T13:26:10.057Z,23.21
2019-05-02T13:28:32.462Z,22.85
2019-05-02T13:30:59.430Z,21.78
2019-05-02T13:33:27.380Z,22.22
2019-05-02T13:35:54.957Z,21.81
2019-05-02T13:38:22.431Z,20.66
2019-05-02T13:40:49.391Z,22.41
2019-05-02T13:43:18.015Z,21.26
2019-05-02T13:45:45.644Z,21.77
2019-05-02T13:48:12.887Z,21.94
2019-05-02T13:50:42.271Z,23.71
2019-05-02T13:53:12.145Z,23.22
2019-05-02T13:55:39.252Z,23.09
2019-05-02T13:58:11.372Z,23.00
2019-05-02T14:00:36.370Z,23.07
2019-05-02T14:03:03.882Z,22.52
2019-05-02T14:05:32.979Z,22.51
2019-05-02T14:08:01.821Z,23.03
2019-05-02T14:10:33.754Z,22.08
2019-05-02T14:12:58.387Z,21.22
2019-05-02T14:15:25.389Z,23.26
2019-05-02T14:17:52.616Z,23.44
2019-05-02T14:20:22.190Z,22.60
2019-05-02T14:22:48.526Z,23.52
2019-05-02T14:25:18.015Z,22.59
2019-05-02T14:27:46.921Z,23.59
2019-05-02T14:30:15.038Z,22.18
2019-05-02T14:32:44.465Z,22.46
2019-05-02T14:35:12.571Z,21.50
2019-05-02T14:37:42.094Z,21.61
2019-05-02T14:40:11.194Z,20.14
2019-05-02T14:42:41.925Z,19.97
2019-05-02T14:45:24.136Z,20.12
2019-05-02T14:47:37.490Z,20.51
2019-05-02T14:50:05.255Z,19.49
2019-05-02T14:52:32.680Z,19.61
2019-05-02T14:54:59.609Z,19.60
2019-05-02T14:57:27.304Z,20.65
2019-05-02T14:59:59.197Z,21.70
2019-05-02T15:02:23.038Z,21.67
2019-05-02T15:04:52.299Z,21.38
2019-05-02T15:07:22.957Z,20.47
2019-05-02T15:09:47.862Z,21.13
2019-05-02T15:12:18.897Z,21.81
2019-05-02T15:14:43.328Z,21.18
2019-05-02T15:17:11.983Z,21.84
2019-05-02T15:19:38.530Z,22.44
2019-05-02T15:22:05.310Z,22.63
2019-05-02T15:24:36.141Z,20.78
2019-05-02T15:27:03.913Z,21.56
2019-05-02T15:29:29.373Z,21.70
2019-05-02T15:31:57.889Z,20.81
2019-05-02T15:34:26.191Z,21.76
2019-05-02T15:36:53.059Z,20.75
2019-05-02T15:41:48.824Z,21.47
2019-05-02T15:44:18.956Z,22.34
2019-05-02T15:46:44.378Z,21.28
2019-05-02T15:49:12.289Z,21.03
2019-05-02T15:51:43.688Z,20.94
2019-05-02T15:54:09.009Z,20.51
2019-05-02T15:56:36.050Z,21.13
2019-05-02T15:59:06.201Z,22.26
2019-05-02T16:01:32.091Z,21.25
2019-05-02T16:03:59.220Z,21.99
2019-05-02T16:06:31.679Z,21.97
2019-05-02T16:08:54.772Z,22.11
2019-05-02T16:11:22.990Z,22.40
2019-05-02T16:13:52.724Z,21.86
2019-05-02T16:16:18.608Z,21.36
2019-05-02T16:18:45.520Z,20.90
2019-05-02T16:21:12.248Z,21.65
2019-05-02T16:23:39.113Z,21.09
2019-05-02T16:26:08.727Z,22.86
2019-05-02T16:28:36.967Z,22.70
2019-05-02T16:31:03.183Z,22.05
2019-05-02T16:33:31.801Z,23.80
2019-05-02T16:35:59.471Z,24.66
2019-05-02T16:38:26.872Z,24.79
2019-05-02T16:40:54.710Z,25.44
2019-05-02T16:43:22.279Z,26.76
2019-05-02T16:45:52.473Z,27.36
2019-05-02T16:48:19.468Z,27.50
2019-05-02T16:50:46.356Z,28.27
2019-05-02T16:53:17.190Z,27.60
2019-05-02T16:55:43.681Z,27.51
2019-05-02T16:58:11.843Z,28.01
2019-05-02T17:00:42.523Z,27.76
2019-05-02T17:03:07.750Z,27.46
2019-05-02T17:05:34.612Z,28.49
2019-05-02T17:08:02.311Z,28.72
2019-05-02T17:10:29.451Z,28.83
2019-05-02T17:13:12.640Z,29.13
2019-05-02T17:20:46.949Z,28.39
2019-05-02T17:23:13.837Z,29.04
2019-05-02T17:25:41.615Z,28.36
2019-05-02T17:28:11.223Z,26.87
2019-05-02T17:30:40.416Z,27.43
2019-05-02T17:33:07.124Z,28.17
2019-05-02T17:35:35.127Z,28.08
2019-05-02T17:38:02.535Z,28.53
2019-05-02T17:40:29.556Z,27.51
2019-05-02T17:42:57.062Z,27.62
2019-05-02T17:45:26.254Z,27.57
2019-05-02T17:47:53.200Z,27.81
2019-05-02T17:50:21.991Z,27.58
2019-05-02T17:52:48.677Z,28.07
2019-05-02T17:55:15.655Z,27.90
2019-05-02T17:57:42.257Z,28.41
2019-05-02T18:00:13.134Z,28.44
2019-05-02T18:02:38.031Z,27.93
2019-05-02T18:05:04.941Z,27.93
2019-05-02T18:07:36.034Z,28.29
2019-05-02T18:10:07.858Z,28.54
2019-05-02T18:12:30.056Z,28.28
2019-05-02T18:14:59.058Z,29.10
2019-05-02T18:17:27.802Z,28.79
2019-05-02T18:19:56.733Z,29.47
2019-05-02T18:22:26.406Z,29.27
2019-05-02T18:24:52.729Z,28.94
2019-05-02T18:27:19.681Z,28.83
2019-05-02T18:29:46.653Z,29.64
2019-05-02T18:32:17.514Z,29.31
2019-05-02T18:34:41.993Z,29.11
2019-05-02T18:37:08.833Z,29.18
2019-05-02T18:39:42.605Z,29.09
2019-05-02T18:44:42.042Z,30.33
2019-05-02T18:47:12.543Z,30.20
2019-05-02T18:49:41.877Z,31.27
2019-05-02T18:52:09.303Z,33.27
2019-05-02T18:54:38.660Z,33.94
2019-05-02T18:57:04.805Z,34.34
2019-05-02T18:59:32.079Z,35.14
2019-05-02T19:01:59.828Z,34.85
2019-05-02T19:04:34.855Z,34.97
2019-05-02T19:06:55.120Z,36.04
2019-05-02T19:09:29.836Z,36.18
2019-05-02T19:12:04.802Z,36.31
2019-05-02T19:14:25.977Z,36.59
2019-05-02T19:16:52.663Z,36.68
2019-05-02T19:19:22.526Z,36.95
2019-05-02T19:21:49.309Z,37.51
2019-05-02T19:24:16.166Z,37.50
2019-05-02T19:26:49.250Z,36.88
2019-05-02T19:29:17.101Z,37.26
2019-05-02T19:31:46.150Z,37.29
2019-05-02T19:34:16.951Z,37.29
2019-05-02T19:36:44.382Z,37.57
2019-05-02T19:39:11.807Z,38.12
2019-05-02T19:41:47.740Z,38.76
2019-05-02T19:44:15.456Z,39.03
2019-05-02T19:46:45.992Z,38.57
2019-05-02T19:49:16.202Z,38.28
2019-05-02T19:51:45.073Z,38.66
2019-05-02T19:54:16.376Z,38.66
2019-05-02T19:56:47.474Z,38.78
2019-05-02T19:59:16.699Z,39.29
2019-05-02T20:01:45.973Z,39.64
2019-05-02T20:04:15.908Z,39.59
2019-05-02T20:06:45.163Z,39.88
2019-05-02T20:09:22.968Z,39.13
2019-05-02T20:11:53.809Z,39.89
2019-05-02T20:14:22.047Z,39.85
2019-05-02T20:16:49.734Z,40.16
2019-05-02T20:19:17.280Z,40.06
2019-05-02T20:21:45.265Z,40.18
2019-05-02T20:24:17.481Z,40.38
2019-05-02T20:26:41.756Z,39.93
2019-05-02T20:29:08.834Z,40.25
2019-05-02T20:31:35.475Z,40.14
2019-05-02T20:34:03.252Z,40.63
2019-05-02T20:36:32.102Z,40.36
2019-05-02T20:38:59.066Z,40.08
2019-05-02T20:41:27.173Z,40.12
2019-05-02T20:43:53.743Z,40.48
2019-05-02T20:46:22.092Z,40.41
2019-05-02T20:48:49.212Z,40.90
2019-05-02T20:51:16.338Z,41.28
2019-05-02T20:53:42.953Z,41.28
2019-05-02T20:56:09.737Z,41.46
2019-05-02T20:58:36.485Z,41.66
2019-05-02T21:01:08.501Z,42.01
2019-05-02T21:03:32.115Z,41.72
2019-05-02T21:05:59.134Z,42.43
2019-05-02T21:08:25.817Z,42.46
2019-05-02T21:10:53.235Z,42.41
2019-05-02T21:13:21.979Z,42.69
2019-05-02T21:15:48.800Z,42.42
2019-05-02T21:18:15.415Z,41.96
2019-05-02T21:20:42.400Z,41.84
2019-05-02T21:23:09.068Z,41.93
2019-05-02T21:25:35.700Z,41.02
2019-05-02T21:28:02.846Z,41.50
2019-05-02T21:30:29.512Z,42.39
2019-05-02T21:32:56.499Z,42.28
2019-05-02T21:35:23.316Z,41.91
2019-05-02T21:37:50.168Z,41.42
2019-05-02T21:40:17.021Z,41.96
2019-05-02T21:42:43.710Z,42.12
2019-05-02T21:45:14.038Z,42.36
2019-05-02T21:50:29.555Z,42.70
2019-05-02T21:52:56.178Z,42.32
2019-05-02T21:55:23.148Z,42.86
2019-05-02T21:57:49.803Z,42.43
2019-05-02T22:00:16.403Z,41.36
2019-05-02T22:02:43.006Z,41.31
2019-05-02T22:05:10.301Z,40.31
2019-05-02T22:07:36.927Z,40.63
2019-05-02T22:10:03.537Z,40.03
2019-05-02T22:12:31.755Z,39.70
2019-05-02T22:14:58.698Z,40.54
2019-05-02T22:17:26.111Z,39.17
2019-05-02T22:19:53.195Z,37.49
2019-05-02T22:22:20.074Z,37.50
2019-05-02T22:24:47.016Z,37.28
2019-05-02T22:27:14.049Z,36.83
2019-05-02T22:29:42.903Z,36.63
2019-05-02T22:32:09.269Z,36.14
2019-05-02T22:34:35.958Z,36.06
2019-05-02T22:37:02.885Z,36.46
2019-05-02T22:39:32.059Z,36.27
2019-05-02T22:41:58.837Z,37.82
2019-05-02T22:44:25.825Z,37.77
2019-05-02T22:46:55.212Z,37.73
2019-05-02T22:49:26.256Z,38.47
2019-05-02T22:51:55.779Z,38.39
2019-05-02T22:54:30.352Z,38.71
2019-05-02T22:56:55.743Z,38.94
2019-05-02T22:59:23.991Z,38.33
2019-05-02T23:01:53.299Z,38.85
2019-05-02T23:04:24.100Z,38.37
2019-05-02T23:06:52.739Z,38.45
2019-05-02T23:09:24.331Z,39.35
2019-05-02T23:11:54.658Z,38.68
2019-05-02T23:14:22.306Z,39.53
2019-05-02T23:16:53.125Z,39.34
2019-05-02T23:19:23.442Z,41.15
2019-05-02T23:21:54.149Z,40.71
2019-05-02T23:24:35.983Z,41.00
2019-05-02T23:26:55.448Z,41.45
2019-05-02T23:29:23.429Z,41.89
2019-05-02T23:31:51.779Z,42.49
2019-05-02T23:34:27.016Z,42.48
2019-05-02T23:36:54.786Z,42.50
2019-05-02T23:39:22.461Z,42.68
2019-05-02T23:41:52.466Z,42.50
2019-05-02T23:44:25.721Z,42.11
2019-05-02T23:46:54.964Z,42.77
2019-05-02T23:49:25.645Z,42.42
2019-05-02T23:52:05.970Z,42.19
2019-05-02T23:54:33.029Z,41.98
2019-05-02T23:56:59.661Z,42.42
2019-05-02T23:59:28.742Z,42.45
